createdAt,value
2023-01-17T00:00:03.743Z,83.29
2023-01-17T00:02:32.970Z,83.41
2023-01-17T00:05:18.250Z,83.99
2023-01-17T00:08:04.008Z,84.60
2023-01-17T00:10:31.392Z,84.01
2023-01-17T00:13:03.503Z,82.69
2023-01-17T00:15:31.585Z,82.59
2023-01-17T00:17:59.166Z,82.69
2023-01-17T00:20:47.409Z,83.82
2023-01-17T00:23:35.989Z,83.08
2023-01-17T00:26:04.505Z,83.29
2023-01-17T00:28:39.520Z,82.25
2023-01-17T00:31:08.624Z,82.53
2023-01-17T00:33:35.796Z,83.65
2023-01-17T00:36:03.942Z,83.66
2023-01-17T00:38:33.352Z,84.00
2023-01-17T00:41:18.317Z,84.19
2023-01-17T00:44:03.612Z,82.79
2023-01-17T00:46:49.263Z,83.24
2023-01-17T00:49:34.761Z,84.40
2023-01-17T00:52:20.544Z,85.04
2023-01-17T00:55:06.083Z,85.43
2023-01-17T00:57:51.708Z,84.74
2023-01-17T01:00:37.849Z,83.84
2023-01-17T01:03:30.105Z,84.37
2023-01-17T01:06:15.375Z,84.99
2023-01-17T01:09:01.098Z,85.36
2023-01-17T01:11:46.490Z,85.76
2023-01-17T01:14:32.219Z,84.59
2023-01-17T01:17:17.489Z,84.95
2023-01-17T01:20:03.179Z,85.63
2023-01-17T01:22:48.823Z,85.01
2023-01-17T01:25:34.342Z,84.78
2023-01-17T01:28:29.985Z,83.58
2023-01-17T01:31:18.493Z,82.81
2023-01-17T01:33:45.407Z,83.16
2023-01-17T01:36:12.438Z,82.64
2023-01-17T01:38:39.871Z,81.82
2023-01-17T01:41:06.836Z,81.12
2023-01-17T01:43:44.325Z,82.48
2023-01-17T01:46:30.397Z,82.62
2023-01-17T01:49:13.578Z,81.21
2023-01-17T01:51:43.433Z,81.12
2023-01-17T01:54:30.897Z,80.63
2023-01-17T01:57:00.747Z,80.26
2023-01-17T01:59:27.823Z,79.86
2023-01-17T02:01:56.435Z,80.52
2023-01-17T02:04:25.367Z,81.03
2023-01-17T02:06:59.912Z,80.35
2023-01-17T02:09:27.238Z,80.37
2023-01-17T02:11:54.753Z,80.65
2023-01-17T02:14:22.899Z,79.81
2023-01-17T02:17:20.390Z,80.89
2023-01-17T02:19:56.211Z,80.21
2023-01-17T02:23:01.605Z,79.97
2023-01-17T02:25:49.774Z,78.88
2023-01-17T02:28:27.789Z,78.64
2023-01-17T02:31:05.563Z,79.64
2023-01-17T02:33:32.429Z,80.21
2023-01-17T02:36:20.171Z,79.27
2023-01-17T02:39:03.143Z,80.18
2023-01-17T02:41:37.035Z,79.73
2023-01-17T02:44:05.157Z,80.61
2023-01-17T02:46:32.028Z,81.25
2023-01-17T02:49:00.500Z,81.32
2023-01-17T02:51:44.957Z,81.06
2023-01-17T02:54:35.689Z,79.80
2023-01-17T02:57:17.896Z,79.46
2023-01-17T03:00:05.324Z,80.72
2023-01-17T03:02:58.185Z,81.19
2023-01-17T03:05:48.042Z,81.50
2023-01-17T03:08:15.923Z,80.31
2023-01-17T03:10:44.427Z,79.83
2023-01-17T03:13:11.399Z,80.42
2023-01-17T03:15:40.207Z,81.96
2023-01-17T03:18:12.700Z,82.03
2023-01-17T03:20:39.764Z,81.40
2023-01-17T03:23:06.812Z,80.46
2023-01-17T03:25:34.111Z,80.97
2023-01-17T03:28:00.962Z,80.71
2023-01-17T03:30:28.006Z,81.00
2023-01-17T03:32:54.964Z,81.74
2023-01-17T03:35:21.968Z,81.66
2023-01-17T03:37:48.873Z,80.99
2023-01-17T03:40:15.800Z,81.65
2023-01-17T03:42:42.895Z,81.52
2023-01-17T03:45:10.162Z,83.42
2023-01-17T03:47:37.136Z,83.57
2023-01-17T03:50:04.649Z,83.53
2023-01-17T03:52:31.527Z,82.60
2023-01-17T03:54:58.502Z,83.29
2023-01-17T03:57:25.461Z,83.44
2023-01-17T03:59:52.294Z,85.38
2023-01-17T04:02:19.348Z,84.58
2023-01-17T04:04:46.389Z,84.92
2023-01-17T04:07:13.281Z,84.11
2023-01-17T04:09:40.177Z,83.84
2023-01-17T04:12:07.295Z,84.60
2023-01-17T04:14:34.169Z,84.76
2023-01-17T04:17:01.585Z,84.62
2023-01-17T04:19:28.747Z,84.29
2023-01-17T04:21:55.775Z,84.43
2023-01-17T04:24:22.682Z,83.69
2023-01-17T04:26:49.531Z,83.99
2023-01-17T04:29:16.401Z,84.60
2023-01-17T04:31:43.292Z,84.29
2023-01-17T04:34:10.415Z,83.92
2023-01-17T04:36:38.131Z,83.01
2023-01-17T04:39:05.292Z,84.00
2023-01-17T04:41:32.199Z,83.35
2023-01-17T04:43:59.067Z,83.41
2023-01-17T04:46:26.079Z,83.37
2023-01-17T04:48:53.024Z,82.20
2023-01-17T04:51:19.934Z,81.18
2023-01-17T04:53:46.998Z,80.79
2023-01-17T04:56:13.953Z,81.15
2023-01-17T04:58:40.862Z,81.41
2023-01-17T05:01:08.644Z,81.49
2023-01-17T05:03:35.661Z,81.23
2023-01-17T05:06:02.915Z,81.11
2023-01-17T05:08:29.927Z,81.57
2023-01-17T05:10:57.218Z,81.05
2023-01-17T05:13:24.166Z,80.66
2023-01-17T05:15:51.190Z,79.48
2023-01-17T05:18:18.669Z,78.76
2023-01-17T05:20:45.721Z,77.95
2023-01-17T05:23:12.874Z,78.54
2023-01-17T05:25:44.847Z,79.35
2023-01-17T05:28:15.272Z,79.27
2023-01-17T05:30:42.260Z,79.81
2023-01-17T05:33:10.343Z,78.98
2023-01-17T05:35:37.857Z,78.50
2023-01-17T05:38:05.138Z,79.87
2023-01-17T05:40:33.500Z,79.29
2023-01-17T05:43:01.705Z,80.34
2023-01-17T05:45:29.995Z,80.72
2023-01-17T05:47:58.560Z,79.58
2023-01-17T05:50:31.939Z,80.29
2023-01-17T05:53:04.460Z,81.15
2023-01-17T05:55:31.983Z,81.92
2023-01-17T05:57:59.661Z,81.62
2023-01-17T06:00:27.023Z,81.05
2023-01-17T06:02:56.250Z,81.04
2023-01-17T06:05:24.251Z,80.94
2023-01-17T06:07:51.234Z,82.03
2023-01-17T06:10:20.769Z,82.59
2023-01-17T06:12:48.057Z,82.65
2023-01-17T06:15:16.909Z,82.16
2023-01-17T06:17:44.008Z,82.49
2023-01-17T06:20:12.160Z,82.23
2023-01-17T06:22:39.098Z,82.54
2023-01-17T06:25:07.465Z,82.92
2023-01-17T06:27:34.495Z,82.39
2023-01-17T06:30:01.536Z,81.14
2023-01-17T06:32:28.468Z,80.71
2023-01-17T06:34:55.382Z,80.81
2023-01-17T06:37:22.556Z,81.70
2023-01-17T06:39:49.517Z,81.21
2023-01-17T06:42:16.453Z,80.66
2023-01-17T06:44:43.381Z,80.05
2023-01-17T06:47:10.343Z,80.44
2023-01-17T06:49:37.256Z,81.13
2023-01-17T06:52:04.343Z,82.22
2023-01-17T06:54:31.212Z,81.87
2023-01-17T06:56:58.312Z,81.86
2023-01-17T06:59:25.344Z,80.84
2023-01-17T07:01:52.631Z,80.59
2023-01-17T07:04:19.878Z,81.62
2023-01-17T07:06:46.955Z,82.24
2023-01-17T07:09:13.806Z,81.88
2023-01-17T07:11:40.721Z,82.35
2023-01-17T07:14:13.071Z,81.49
2023-01-17T07:16:40.022Z,81.61
2023-01-17T07:19:06.886Z,82.19
2023-01-17T07:21:33.831Z,82.97
2023-01-17T07:24:00.663Z,82.97
2023-01-17T07:26:27.585Z,82.91
2023-01-17T07:28:54.569Z,82.34
2023-01-17T07:31:21.477Z,81.88
2023-01-17T07:33:48.441Z,82.37
2023-01-17T07:36:15.394Z,82.70
2023-01-17T07:38:44.038Z,81.79
2023-01-17T07:41:11.146Z,81.44
2023-01-17T07:43:38.198Z,80.92
2023-01-17T07:46:08.133Z,80.97
2023-01-17T07:48:35.542Z,81.69
2023-01-17T07:51:02.485Z,81.63
2023-01-17T07:53:33.095Z,81.86
2023-01-17T07:56:07.759Z,80.90
2023-01-17T07:58:35.389Z,80.69
2023-01-17T08:01:07.734Z,80.62
2023-01-17T08:03:39.911Z,81.12
2023-01-17T08:06:20.378Z,80.53
2023-01-17T08:08:47.517Z,79.49
2023-01-17T08:11:15.203Z,79.33
2023-01-17T08:13:42.294Z,78.55
2023-01-17T08:16:13.396Z,79.73
2023-01-17T08:18:41.130Z,79.79
2023-01-17T08:21:16.880Z,79.20
2023-01-17T08:23:53.053Z,78.83
2023-01-17T08:26:22.508Z,79.07
2023-01-17T08:28:55.348Z,79.01
2023-01-17T08:31:22.674Z,78.89
2023-01-17T08:33:49.684Z,78.84
2023-01-17T08:36:17.053Z,79.18
2023-01-17T08:38:44.139Z,78.33
2023-01-17T08:41:11.056Z,77.91
2023-01-17T08:43:38.065Z,78.71
2023-01-17T08:46:06.649Z,78.38
2023-01-17T08:48:33.594Z,78.12
2023-01-17T08:51:02.487Z,78.28
2023-01-17T08:53:29.795Z,76.48
2023-01-17T08:56:01.328Z,76.56
2023-01-17T08:58:30.678Z,76.92
2023-01-17T09:01:02.999Z,76.41
2023-01-17T09:03:31.103Z,75.80
2023-01-17T09:06:03.339Z,75.42
2023-01-17T09:08:30.868Z,74.64
2023-01-17T09:10:58.243Z,74.67
2023-01-17T09:13:25.218Z,74.61
2023-01-17T09:15:56.730Z,75.03
2023-01-17T09:18:24.909Z,73.89
2023-01-17T09:20:55.212Z,73.46
2023-01-17T09:23:22.877Z,72.92
2023-01-17T09:25:58.048Z,72.09
2023-01-17T09:28:27.014Z,71.66
2023-01-17T09:30:54.548Z,70.59
2023-01-17T09:33:24.557Z,70.36
2023-01-17T09:35:51.557Z,69.62
2023-01-17T09:38:18.435Z,69.72
2023-01-17T09:40:47.597Z,70.13
2023-01-17T09:43:48.231Z,71.14
2023-01-17T10:17:54.557Z,71.35
2023-01-17T10:20:56.777Z,69.53
2023-01-17T10:23:46.283Z,68.52
2023-01-17T10:26:18.995Z,67.99
2023-01-17T10:28:51.673Z,68.52
2023-01-17T10:31:28.826Z,67.94
2023-01-17T10:34:15.370Z,67.36
2023-01-17T10:36:50.475Z,66.17
2023-01-17T10:39:22.720Z,65.15
2023-01-17T10:41:55.934Z,65.54
2023-01-17T10:44:35.113Z,66.13
2023-01-17T10:47:11.044Z,66.43
2023-01-17T10:49:46.826Z,65.52
2023-01-17T10:52:23.194Z,67.10
2023-01-17T10:54:53.833Z,64.88
2023-01-17T10:57:24.108Z,65.39
2023-01-17T10:59:52.455Z,65.30
2023-01-17T11:02:22.109Z,65.14
2023-01-17T11:04:54.504Z,64.66
2023-01-17T11:07:26.763Z,64.37
2023-01-17T11:09:58.806Z,64.11
2023-01-17T11:12:44.234Z,63.63
2023-01-17T11:15:11.066Z,63.50
2023-01-17T11:17:41.885Z,62.82
2023-01-17T11:20:22.892Z,63.19
2023-01-17T11:23:22.691Z,62.64
2023-01-17T11:25:55.187Z,62.69
2023-01-17T11:28:26.309Z,63.28
2023-01-17T11:30:56.192Z,62.77
2023-01-17T11:33:35.556Z,63.72
2023-01-17T11:36:02.880Z,63.92
2023-01-17T11:38:29.898Z,62.12
2023-01-17T11:41:16.727Z,62.23
2023-01-17T11:43:58.185Z,62.82
2023-01-17T11:46:26.296Z,62.54
2023-01-17T11:48:56.409Z,62.06
2023-01-17T11:51:41.452Z,61.30
2023-01-17T11:54:22.476Z,63.27
2023-01-17T11:56:50.691Z,61.51
2023-01-17T11:59:33.561Z,61.27
2023-01-17T12:02:37.231Z,60.99
2023-01-17T12:05:23.605Z,60.01
2023-01-17T12:08:00.402Z,60.58
2023-01-17T12:10:44.806Z,60.65
2023-01-17T12:13:58.664Z,60.80
2023-01-17T12:16:31.337Z,60.34
2023-01-17T12:19:34.211Z,60.48
2023-01-17T12:22:33.923Z,59.47
2023-01-17T12:25:23.188Z,59.33
2023-01-17T12:28:17.745Z,59.42
2023-01-17T12:31:20.377Z,59.66
2023-01-17T12:33:58.091Z,59.22
2023-01-17T12:36:31.144Z,59.34
2023-01-17T12:39:01.426Z,59.05
2023-01-17T12:41:47.748Z,59.41
2023-01-17T12:44:18.917Z,59.32
2023-01-17T12:47:00.992Z,59.47
2023-01-17T12:49:46.794Z,59.13
2023-01-17T12:52:35.433Z,59.62
2023-01-17T12:55:09.567Z,59.98
2023-01-17T12:57:45.447Z,60.25
2023-01-17T13:00:19.759Z,60.08
2023-01-17T13:03:16.310Z,60.46
2023-01-17T13:05:46.621Z,60.83
2023-01-17T13:08:13.492Z,61.19
2023-01-17T13:10:40.382Z,60.73
2023-01-17T13:13:30.599Z,61.22
2023-01-17T13:16:18.147Z,61.57
2023-01-17T13:18:49.184Z,61.34
2023-01-17T13:21:32.968Z,60.73
2023-01-17T13:24:00.258Z,61.38
2023-01-17T13:26:29.737Z,61.63
2023-01-17T13:29:37.685Z,61.22
2023-01-17T13:32:22.796Z,61.63
2023-01-17T13:35:36.143Z,61.72
2023-01-17T13:38:11.957Z,62.04
2023-01-17T13:40:54.994Z,62.86
2023-01-17T13:43:28.804Z,62.96
2023-01-17T13:46:03.265Z,63.12
2023-01-17T13:48:32.371Z,64.03
2023-01-17T13:51:06.289Z,62.96
2023-01-17T13:53:37.007Z,63.13
2023-01-17T13:56:15.721Z,63.81
2023-01-17T13:58:47.272Z,64.02
2023-01-17T14:01:14.698Z,63.99
2023-01-17T14:03:50.591Z,63.31
2023-01-17T14:06:33.479Z,63.34
2023-01-17T14:09:23.874Z,63.76
2023-01-17T14:12:06.049Z,63.86
2023-01-17T14:14:42.921Z,64.18
2023-01-17T14:17:20.557Z,63.89
2023-01-17T14:20:01.894Z,64.12
2023-01-17T14:22:33.287Z,64.07
2023-01-17T14:25:00.119Z,65.27
2023-01-17T14:27:29.282Z,64.83
2023-01-17T14:29:59.019Z,64.98
2023-01-17T14:32:37.497Z,65.54
2023-01-17T14:35:05.829Z,64.19
2023-01-17T14:37:32.666Z,64.75
2023-01-17T14:40:01.135Z,65.01
2023-01-17T14:42:33.271Z,65.45
2023-01-17T14:45:07.813Z,65.73
2023-01-17T14:47:39.478Z,65.30
2023-01-17T14:50:19.598Z,64.72
2023-01-17T14:52:46.591Z,64.64
2023-01-17T14:55:20.753Z,65.40
2023-01-17T14:57:56.258Z,65.29
2023-01-17T15:00:25.593Z,65.26
2023-01-17T15:02:53.903Z,65.27
2023-01-17T15:05:23.635Z,64.18
2023-01-17T15:07:54.136Z,65.09
2023-01-17T15:10:25.324Z,65.53
2023-01-17T15:12:52.852Z,65.79
2023-01-17T15:15:35.482Z,65.96
2023-01-17T15:18:14.282Z,65.65
2023-01-17T15:20:52.227Z,64.96
2023-01-17T15:23:21.958Z,66.10
2023-01-17T15:25:50.519Z,66.62
2023-01-17T15:28:18.104Z,66.67
2023-01-17T15:31:06.744Z,66.92
2023-01-17T15:33:35.389Z,66.15
2023-01-17T15:36:06.718Z,65.85
2023-01-17T15:38:39.167Z,66.09
2023-01-17T15:41:18.012Z,66.32
2023-01-17T15:43:45.472Z,66.38
2023-01-17T15:46:29.066Z,66.10
2023-01-17T15:49:26.257Z,65.54
2023-01-17T15:52:15.290Z,66.23
2023-01-17T15:54:56.621Z,67.02
2023-01-17T15:57:36.934Z,66.26
2023-01-17T16:00:20.785Z,66.78
2023-01-17T16:02:55.900Z,66.64
2023-01-17T16:05:27.741Z,65.93
2023-01-17T16:07:56.849Z,66.53
2023-01-17T16:10:24.981Z,67.01
2023-01-17T16:12:53.814Z,67.88
2023-01-17T16:15:22.163Z,67.94
2023-01-17T16:17:52.050Z,68.00
2023-01-17T16:20:34.846Z,67.40
2023-01-17T16:23:02.918Z,68.06
2023-01-17T16:25:33.087Z,68.90
2023-01-17T16:28:00.385Z,68.58
2023-01-17T16:30:28.088Z,69.19
2023-01-17T16:32:56.656Z,69.12
2023-01-17T16:35:27.765Z,68.69
2023-01-17T16:38:00.163Z,69.22
2023-01-17T16:40:33.040Z,69.37
2023-01-17T16:43:01.158Z,69.58
2023-01-17T16:45:28.264Z,69.97
2023-01-17T16:47:55.261Z,71.18
2023-01-17T16:50:24.763Z,70.54
2023-01-17T16:52:53.102Z,70.98
2023-01-17T16:55:22.922Z,71.51
2023-01-17T16:57:51.542Z,72.22
2023-01-17T17:00:19.529Z,72.08
2023-01-17T17:02:51.004Z,72.46
2023-01-17T17:05:18.314Z,71.48
2023-01-17T17:07:46.288Z,72.22
2023-01-17T17:10:16.282Z,73.21
2023-01-17T17:12:43.598Z,73.59
2023-01-17T17:15:12.039Z,73.46
2023-01-17T17:17:41.205Z,73.22
2023-01-17T17:20:14.592Z,72.45
2023-01-17T17:22:44.120Z,73.13
2023-01-17T17:25:12.311Z,74.07
2023-01-17T17:27:39.839Z,74.30
2023-01-17T17:30:07.405Z,73.53
2023-01-17T17:32:34.641Z,73.93
2023-01-17T17:35:01.510Z,72.75
2023-01-17T17:37:29.252Z,73.57
2023-01-17T17:39:57.042Z,74.06
2023-01-17T17:42:24.318Z,74.28
2023-01-17T17:44:51.237Z,74.94
2023-01-17T17:47:18.567Z,74.85
2023-01-17T17:49:45.645Z,74.23
2023-01-17T17:52:13.145Z,74.42
2023-01-17T17:54:40.409Z,75.59
2023-01-17T17:57:07.717Z,75.86
2023-01-17T17:59:34.675Z,75.63
2023-01-17T18:02:01.937Z,75.60
2023-01-17T18:04:28.985Z,74.83
2023-01-17T18:06:57.664Z,75.20
2023-01-17T18:09:24.592Z,75.86
2023-01-17T18:11:51.544Z,76.33
2023-01-17T18:14:21.217Z,76.13
2023-01-17T18:16:48.816Z,76.38
2023-01-17T18:19:21.961Z,75.58
2023-01-17T18:21:51.447Z,75.78
2023-01-17T18:24:21.878Z,76.63
2023-01-17T18:26:54.443Z,76.45
2023-01-17T18:29:22.762Z,76.79
2023-01-17T18:31:51.121Z,75.49
2023-01-17T18:34:24.323Z,75.55
2023-01-17T18:36:52.832Z,76.28
2023-01-17T18:39:25.419Z,77.03
2023-01-17T18:41:53.253Z,76.88
2023-01-17T18:44:22.116Z,76.94
2023-01-17T18:46:55.961Z,77.30
2023-01-17T18:49:23.007Z,75.57
2023-01-17T18:51:51.437Z,75.73
2023-01-17T18:54:20.260Z,76.65
2023-01-17T18:56:47.255Z,76.43
2023-01-17T18:59:16.171Z,75.95
2023-01-17T19:01:43.822Z,75.75
2023-01-17T19:04:12.907Z,74.71
2023-01-17T19:06:42.372Z,75.03
2023-01-17T19:09:11.048Z,74.93
2023-01-17T19:11:38.221Z,75.52
2023-01-17T19:14:07.003Z,75.01
2023-01-17T19:16:39.273Z,74.16
2023-01-17T19:19:12.189Z,74.49
2023-01-17T19:21:39.153Z,75.06
2023-01-17T19:24:06.912Z,74.97
2023-01-17T19:26:34.298Z,74.68
2023-01-17T19:29:05.274Z,74.99
2023-01-17T19:31:39.216Z,74.71
2023-01-17T19:34:06.291Z,74.61
2023-01-17T19:36:37.697Z,75.15
2023-01-17T19:39:07.423Z,75.38
2023-01-17T19:41:37.363Z,75.29
2023-01-17T19:44:07.298Z,75.87
2023-01-17T19:46:35.432Z,75.38
2023-01-17T19:49:03.616Z,74.95
2023-01-17T19:51:30.625Z,75.38
2023-01-17T19:54:01.368Z,76.31
2023-01-17T19:56:29.364Z,75.97
2023-01-17T19:59:01.531Z,75.56
2023-01-17T20:01:31.785Z,76.08
2023-01-17T20:04:00.575Z,75.12
2023-01-17T20:06:31.267Z,75.25
2023-01-17T20:08:58.422Z,75.19
2023-01-17T20:11:27.431Z,75.05
2023-01-17T20:13:57.062Z,75.46
2023-01-17T20:16:26.228Z,75.17
2023-01-17T20:18:53.155Z,75.04
2023-01-17T20:21:26.015Z,75.48
2023-01-17T20:23:54.547Z,76.60
2023-01-17T20:26:34.870Z,77.09
2023-01-17T20:29:10.339Z,77.03
2023-01-17T20:31:39.176Z,75.81
2023-01-17T20:34:07.249Z,76.11
2023-01-17T20:36:34.680Z,76.51
2023-01-17T20:39:04.456Z,76.62
2023-01-17T20:41:32.712Z,76.96
2023-01-17T20:44:01.902Z,76.08
2023-01-17T20:46:33.353Z,75.93
2023-01-17T20:49:04.044Z,76.25
2023-01-17T20:51:34.467Z,77.19
2023-01-17T20:54:03.769Z,77.68
2023-01-17T20:56:34.790Z,78.20
2023-01-17T20:59:06.399Z,77.63
2023-01-17T21:01:34.601Z,77.01
2023-01-17T21:04:03.269Z,77.40
2023-01-17T21:06:30.597Z,77.85
2023-01-17T21:08:57.720Z,78.16
2023-01-17T21:11:27.650Z,77.57
2023-01-17T21:13:54.833Z,77.54
2023-01-17T21:16:23.143Z,77.30
2023-01-17T21:18:51.839Z,77.52
2023-01-17T21:21:24.283Z,78.70
2023-01-17T21:23:53.760Z,78.44
2023-01-17T21:26:22.438Z,78.60
2023-01-17T21:28:50.716Z,79.14
2023-01-17T21:31:26.279Z,78.84
2023-01-17T21:33:56.706Z,78.13
2023-01-17T21:36:27.284Z,79.67
2023-01-17T21:38:57.139Z,79.68
2023-01-17T21:41:29.459Z,79.58
2023-01-17T21:43:58.349Z,79.88
2023-01-17T21:46:26.159Z,79.21
2023-01-17T21:48:53.049Z,79.49
2023-01-17T21:51:21.812Z,80.27
2023-01-17T21:53:49.108Z,80.33
2023-01-17T21:56:34.729Z,80.01
2023-01-17T21:59:01.776Z,79.35
2023-01-17T22:01:32.394Z,78.74
2023-01-17T22:04:02.866Z,79.16
2023-01-17T22:06:32.500Z,78.89
2023-01-17T22:08:59.365Z,78.68
2023-01-17T22:11:30.037Z,78.47
2023-01-17T22:13:58.973Z,78.46
2023-01-17T22:16:26.576Z,77.77
2023-01-17T22:18:53.539Z,78.22
2023-01-17T22:21:25.876Z,78.08
2023-01-17T22:23:58.520Z,78.17
2023-01-17T22:26:30.781Z,78.17
2023-01-17T22:29:01.147Z,77.89
2023-01-17T22:31:28.674Z,77.00
2023-01-17T22:34:01.041Z,76.97
2023-01-17T22:36:29.067Z,77.38
2023-01-17T22:38:56.135Z,77.30
2023-01-17T22:41:25.539Z,77.42
2023-01-17T22:43:54.125Z,77.35
2023-01-17T22:46:25.050Z,76.64
2023-01-17T22:48:53.072Z,77.49
2023-01-17T22:51:21.678Z,77.61
2023-01-17T22:53:53.752Z,77.64
2023-01-17T22:56:28.826Z,77.76
2023-01-17T22:58:55.979Z,76.80
2023-01-17T23:01:25.551Z,76.46
2023-01-17T23:03:55.135Z,77.15
2023-01-17T23:06:28.392Z,77.60
2023-01-17T23:08:57.693Z,77.86
2023-01-17T23:11:43.958Z,77.20
2023-01-17T23:14:53.567Z,76.52
2023-01-17T23:17:40.374Z,76.74
2023-01-17T23:20:10.571Z,77.44
2023-01-17T23:22:37.807Z,77.65
2023-01-17T23:25:06.752Z,77.26
2023-01-17T23:27:59.678Z,77.12
2023-01-17T23:30:35.775Z,76.17
2023-01-17T23:33:14.375Z,76.10
2023-01-17T23:35:43.468Z,76.84
2023-01-17T23:38:34.131Z,76.60
2023-01-17T23:41:25.112Z,76.95
2023-01-17T23:43:53.637Z,75.68
2023-01-17T23:46:21.313Z,75.90
2023-01-17T23:48:48.860Z,76.28
2023-01-17T23:51:16.032Z,76.95
2023-01-17T23:53:43.294Z,76.64
2023-01-17T23:56:26.637Z,76.54
2023-01-17T23:58:53.557Z,75.80
